createdAt,value
2023-04-28T00:01:32.749Z,4.82
2023-04-28T00:04:00.889Z,5.70
2023-04-28T00:06:58.128Z,7.13
2023-04-28T00:09:24.631Z,8.30
2023-04-28T00:11:51.002Z,7.43
2023-04-28T00:14:17.665Z,7.78
2023-04-28T00:16:44.920Z,7.03
2023-04-28T00:19:11.329Z,6.30
2023-04-28T00:21:37.709Z,6.97
2023-04-28T00:24:04.168Z,7.45
2023-04-28T00:26:30.596Z,6.68
2023-04-28T00:28:56.959Z,6.50
2023-04-28T00:31:23.332Z,7.93
2023-04-28T00:33:49.636Z,12.60
2023-04-28T00:36:16.156Z,7.07
2023-04-28T00:38:42.519Z,8.13
2023-04-28T00:41:12.393Z,6.25
2023-04-28T00:43:46.481Z,7.55
2023-04-28T00:46:20.989Z,5.22
2023-04-28T00:48:47.955Z,6.10
2023-04-28T00:51:14.794Z,5.25
2023-04-28T00:53:41.622Z,8.35
2023-04-28T00:56:08.220Z,9.07
2023-04-28T00:58:34.899Z,7.38
2023-04-28T01:01:09.606Z,5.53
2023-04-28T01:03:38.270Z,7.80
2023-04-28T01:06:06.622Z,6.68
2023-04-28T01:08:34.483Z,6.07
2023-04-28T01:11:01.932Z,9.10
2023-04-28T01:13:28.721Z,5.82
2023-04-28T01:15:58.886Z,8.93
2023-04-28T01:18:25.669Z,9.73
2023-04-28T01:20:52.051Z,6.07
2023-04-28T01:23:18.491Z,6.45
2023-04-28T01:25:44.863Z,6.80
2023-04-28T01:28:11.654Z,5.85
2023-04-28T01:30:38.145Z,8.23
2023-04-28T01:33:04.637Z,5.45
2023-04-28T01:35:31.334Z,7.70
2023-04-28T01:37:57.788Z,6.65
2023-04-28T01:40:24.282Z,6.68
2023-04-28T01:42:51.051Z,5.82
2023-04-28T01:45:17.429Z,7.15
2023-04-28T01:47:43.749Z,7.85
2023-04-28T01:50:10.537Z,7.07
2023-04-28T01:52:36.852Z,4.78
2023-04-28T01:55:03.472Z,5.70
2023-04-28T01:57:29.811Z,8.88
2023-04-28T01:59:56.301Z,8.48
2023-04-28T02:02:22.845Z,4.53
2023-04-28T02:04:49.317Z,6.93
2023-04-28T02:07:15.671Z,7.43
2023-04-28T02:09:41.970Z,8.20
2023-04-28T02:12:08.265Z,9.07
2023-04-28T02:14:34.647Z,7.97
2023-04-28T02:17:02.944Z,9.35
2023-04-28T02:19:29.309Z,5.72
2023-04-28T02:21:55.638Z,7.15
2023-04-28T02:24:22.016Z,8.45
2023-04-28T02:26:48.910Z,6.00
2023-04-28T02:29:15.430Z,6.30
2023-04-28T02:31:41.906Z,6.60
2023-04-28T02:34:08.386Z,5.38
2023-04-28T02:36:34.906Z,7.05
2023-04-28T02:39:01.315Z,8.25
2023-04-28T02:41:27.805Z,7.63
2023-04-28T02:43:54.136Z,7.55
2023-04-28T02:48:47.055Z,6.32
2023-04-28T02:51:14.116Z,7.40
2023-04-28T02:53:40.731Z,8.45
2023-04-28T02:56:07.211Z,6.07
2023-04-28T02:58:33.582Z,6.22
2023-04-28T03:01:00.119Z,7.55
2023-04-28T03:03:26.829Z,6.93
2023-04-28T03:05:53.447Z,6.55
2023-04-28T03:08:20.812Z,7.43
2023-04-28T03:10:47.172Z,5.68
2023-04-28T03:13:13.505Z,9.15
2023-04-28T03:15:39.792Z,6.68
2023-04-28T03:18:06.156Z,8.45
2023-04-28T03:20:32.489Z,8.63
2023-04-28T03:22:58.923Z,7.18
2023-04-28T03:25:25.702Z,9.07
2023-04-28T03:27:52.120Z,7.35
2023-04-28T03:30:18.490Z,5.68
2023-04-28T03:32:44.898Z,8.35
2023-04-28T03:35:11.285Z,10.13
2023-04-28T03:37:37.657Z,10.95
2023-04-28T03:40:04.381Z,8.88
2023-04-28T03:42:30.826Z,6.05
2023-04-28T03:44:57.174Z,7.07
2023-04-28T03:47:23.523Z,8.32
2023-04-28T03:49:50.279Z,7.65
2023-04-28T03:52:16.626Z,9.52
2023-04-28T03:54:43.068Z,8.90
2023-04-28T03:57:09.428Z,7.22
2023-04-28T03:59:35.875Z,9.25
2023-04-28T04:02:02.313Z,8.40
2023-04-28T04:04:28.935Z,6.53
2023-04-28T04:06:55.474Z,7.88
2023-04-28T04:09:21.898Z,8.77
2023-04-28T04:11:48.242Z,6.82
2023-04-28T04:14:14.816Z,8.55
2023-04-28T04:16:41.385Z,11.57
2023-04-28T04:19:07.821Z,8.27
2023-04-28T04:21:34.150Z,8.48
2023-04-28T04:24:01.245Z,7.90
2023-04-28T04:26:27.612Z,9.68
2023-04-28T04:28:53.932Z,6.22
2023-04-28T04:31:20.616Z,8.32
2023-04-28T04:33:47.545Z,10.50
2023-04-28T04:36:13.931Z,7.80
2023-04-28T04:38:40.490Z,12.80
2023-04-28T04:41:06.971Z,9.13
2023-04-28T04:43:33.351Z,8.88
2023-04-28T04:45:59.972Z,10.00
2023-04-28T04:48:26.378Z,11.48
2023-04-28T04:50:52.691Z,10.55
2023-04-28T04:53:19.111Z,7.43
2023-04-28T04:55:45.519Z,10.85
2023-04-28T04:58:12.161Z,8.40
2023-04-28T05:00:38.841Z,7.60
2023-04-28T05:03:06.331Z,7.25
2023-04-28T05:05:33.023Z,8.93
2023-04-28T05:07:59.503Z,8.90
2023-04-28T05:10:27.375Z,8.23
2023-04-28T05:12:54.134Z,8.93
2023-04-28T05:15:20.683Z,9.60
2023-04-28T05:17:47.086Z,8.57
2023-04-28T05:20:13.503Z,8.38
2023-04-28T05:22:39.918Z,9.25
2023-04-28T05:25:07.223Z,10.70
2023-04-28T05:27:33.663Z,7.35
2023-04-28T05:30:00.003Z,9.50
2023-04-28T05:32:26.330Z,9.35
2023-04-28T05:34:52.772Z,8.63
2023-04-28T05:37:19.133Z,9.13
2023-04-28T05:39:45.940Z,12.55
2023-04-28T05:42:12.482Z,8.50
2023-04-28T05:44:39.493Z,9.52
2023-04-28T05:47:07.097Z,8.45
2023-04-28T05:49:33.404Z,9.73
2023-04-28T05:51:59.720Z,11.13
2023-04-28T05:54:26.984Z,11.65
2023-04-28T05:56:53.570Z,10.20
2023-04-28T05:59:19.980Z,9.98
2023-04-28T06:01:46.371Z,11.43
2023-04-28T06:04:12.937Z,8.38
2023-04-28T06:06:39.475Z,11.10
2023-04-28T06:09:05.885Z,12.80
2023-04-28T06:11:32.251Z,13.00
2023-04-28T06:13:58.596Z,10.35
2023-04-28T06:16:25.156Z,9.25
2023-04-28T06:18:51.604Z,12.63
2023-04-28T06:21:18.136Z,11.02
2023-04-28T06:23:44.557Z,10.75
2023-04-28T06:26:10.990Z,14.93
2023-04-28T06:28:37.386Z,10.93
2023-04-28T06:31:03.853Z,11.02
2023-04-28T06:33:30.356Z,9.48
2023-04-28T06:35:56.710Z,14.23
2023-04-28T06:38:23.163Z,14.05
2023-04-28T06:40:49.526Z,12.57
2023-04-28T06:43:15.920Z,12.00
2023-04-28T06:45:42.374Z,13.30
2023-04-28T06:48:08.803Z,12.88
2023-04-28T06:50:36.887Z,12.48
2023-04-28T06:53:03.435Z,14.55
2023-04-28T06:55:29.790Z,16.10
2023-04-28T06:57:56.389Z,12.18
2023-04-28T07:00:23.227Z,12.93
2023-04-28T07:02:49.797Z,12.80
2023-04-28T07:05:18.248Z,15.63
2023-04-28T07:07:45.394Z,14.27
2023-04-28T07:10:11.831Z,10.88
2023-04-28T07:12:38.180Z,16.40
2023-04-28T07:15:06.493Z,11.55
2023-04-28T07:17:33.320Z,12.57
2023-04-28T07:19:59.730Z,12.55
2023-04-28T07:22:26.148Z,13.00
2023-04-28T07:24:53.040Z,12.95
2023-04-28T07:27:19.357Z,14.90
2023-04-28T07:29:45.827Z,13.00
2023-04-28T07:32:12.189Z,16.15
2023-04-28T07:34:38.591Z,14.35
2023-04-28T07:37:05.136Z,15.02
2023-04-28T07:39:33.960Z,15.25
2023-04-28T07:42:02.492Z,13.93
2023-04-28T07:44:29.959Z,16.63
2023-04-28T07:46:56.846Z,15.88
2023-04-28T07:49:23.377Z,14.70
2023-04-28T07:51:52.051Z,13.95
2023-04-28T07:54:18.579Z,16.15
2023-04-28T07:56:45.199Z,13.10
2023-04-28T07:59:11.512Z,12.35
2023-04-28T08:01:37.818Z,10.55
2023-04-28T08:04:04.381Z,13.73
2023-04-28T08:06:30.989Z,10.77
2023-04-28T08:08:57.409Z,9.57
2023-04-28T08:11:23.772Z,12.85
2023-04-28T08:13:50.242Z,14.20
2023-04-28T08:16:16.726Z,12.77
2023-04-28T08:18:43.158Z,10.93
2023-04-28T08:21:09.848Z,11.77
2023-04-28T08:23:36.313Z,12.63
2023-04-28T08:26:02.981Z,15.38
2023-04-28T08:28:29.367Z,14.85
2023-04-28T08:30:56.067Z,15.45
2023-04-28T08:33:24.038Z,12.57
2023-04-28T08:35:51.135Z,12.35
2023-04-28T08:38:18.102Z,12.90
2023-04-28T08:40:44.632Z,18.95
2023-04-28T08:43:11.461Z,12.50
2023-04-28T08:45:42.954Z,15.50
2023-04-28T08:48:22.885Z,14.88
2023-04-28T08:50:51.981Z,14.05
2023-04-28T08:53:23.628Z,12.15
2023-04-28T08:55:52.729Z,14.25
2023-04-28T08:58:19.277Z,14.68
2023-04-28T09:00:45.984Z,16.00
2023-04-28T09:03:13.665Z,17.17
2023-04-28T09:05:40.536Z,17.73
2023-04-28T09:08:07.090Z,17.85
2023-04-28T09:10:33.550Z,14.13
2023-04-28T09:12:59.855Z,13.80
2023-04-28T09:15:42.769Z,15.90
2023-04-28T09:18:15.788Z,15.52
2023-04-28T09:20:42.181Z,17.70
2023-04-28T09:23:19.891Z,16.77
2023-04-28T09:26:15.780Z,16.92
2023-04-28T09:28:42.135Z,17.35
2023-04-28T09:31:25.142Z,15.57
2023-04-28T09:33:59.002Z,17.00
2023-04-28T09:36:30.597Z,15.85
2023-04-28T09:39:00.897Z,18.88
2023-04-28T09:41:41.881Z,16.05
2023-04-28T09:44:11.934Z,16.35
2023-04-28T09:46:38.610Z,20.40
2023-04-28T09:49:05.729Z,19.23
2023-04-28T09:51:32.381Z,16.70
2023-04-28T09:54:00.969Z,20.58
2023-04-28T09:56:33.109Z,18.50
2023-04-28T09:59:00.843Z,18.73
2023-04-28T10:01:32.546Z,20.02
2023-04-28T10:04:02.608Z,17.08
2023-04-28T10:06:30.172Z,19.25
2023-04-28T10:08:58.621Z,17.63
2023-04-28T10:11:26.735Z,13.85
2023-04-28T10:13:54.044Z,16.23
2023-04-28T10:16:20.536Z,15.07
2023-04-28T10:18:47.599Z,16.23
2023-04-28T10:21:18.557Z,15.32
2023-04-28T10:24:00.421Z,15.40
2023-04-28T10:27:10.034Z,14.48
2023-04-28T10:29:36.567Z,15.18
2023-04-28T10:32:19.032Z,14.68
2023-04-28T10:34:45.700Z,15.90
2023-04-28T10:37:14.719Z,14.02
2023-04-28T10:39:41.959Z,15.10
2023-04-28T10:42:45.742Z,15.15
2023-04-28T10:45:12.095Z,15.10
2023-04-28T10:48:06.264Z,16.10
2023-04-28T10:50:38.988Z,15.30
2023-04-28T10:53:06.303Z,16.80
2023-04-28T10:55:39.925Z,15.48
2023-04-28T10:58:15.479Z,18.92
2023-04-28T11:00:43.508Z,16.40
2023-04-28T11:03:09.985Z,14.23
2023-04-28T11:05:36.726Z,13.32
2023-04-28T11:08:18.510Z,15.63
2023-04-28T11:11:25.697Z,15.25
2023-04-28T11:14:15.847Z,15.70
2023-04-28T11:16:59.872Z,13.35
2023-04-28T11:19:28.468Z,13.10
2023-04-28T11:21:57.204Z,11.98
2023-04-28T11:24:25.724Z,11.20
2023-04-28T11:26:54.719Z,14.13
2023-04-28T11:29:33.882Z,12.38
2023-04-28T11:32:00.473Z,16.05
2023-04-28T11:34:26.985Z,14.20
2023-04-28T11:36:54.971Z,13.48
2023-04-28T11:39:29.603Z,14.88
2023-04-28T11:41:56.972Z,16.73
2023-04-28T11:44:25.531Z,18.38
2023-04-28T11:46:57.352Z,15.05
2023-04-28T11:49:30.387Z,16.08
2023-04-28T11:51:59.899Z,21.08
2023-04-28T11:54:28.108Z,18.92
2023-04-28T11:56:56.551Z,16.73
2023-04-28T11:59:34.807Z,18.83
2023-04-28T12:02:03.587Z,15.77
2023-04-28T12:04:37.904Z,18.23
2023-04-28T12:07:16.212Z,16.23
2023-04-28T12:09:44.577Z,16.80
2023-04-28T12:12:13.716Z,13.98
2023-04-28T12:15:01.557Z,16.15
2023-04-28T12:17:29.784Z,19.33
2023-04-28T12:19:59.646Z,15.48
2023-04-28T12:22:26.373Z,15.27
2023-04-28T12:25:13.225Z,14.77
2023-04-28T12:27:41.037Z,13.35
2023-04-28T12:30:24.972Z,16.42
2023-04-28T12:32:52.074Z,12.40
2023-04-28T12:35:21.824Z,15.38
2023-04-28T12:37:48.136Z,13.05
2023-04-28T12:40:15.350Z,14.00
2023-04-28T12:42:41.694Z,12.23
2023-04-28T12:45:11.118Z,13.80
2023-04-28T12:47:38.558Z,14.02
2023-04-28T12:50:06.533Z,11.40
2023-04-28T12:52:34.609Z,13.10
2023-04-28T12:55:01.225Z,12.23
2023-04-28T12:57:28.742Z,12.13
2023-04-28T12:59:56.566Z,12.13
2023-04-28T13:02:23.501Z,10.07
2023-04-28T13:04:51.793Z,10.80
2023-04-28T13:07:18.376Z,9.85
2023-04-28T13:09:45.475Z,10.45
2023-04-28T13:12:12.370Z,10.32
2023-04-28T13:14:38.818Z,9.82
2023-04-28T13:17:05.204Z,11.10
2023-04-28T13:19:33.625Z,10.05
2023-04-28T13:22:00.166Z,10.95
2023-04-28T13:24:26.514Z,8.90
2023-04-28T13:26:53.160Z,8.07
2023-04-28T13:29:19.559Z,6.05
2023-04-28T13:31:46.505Z,10.75
2023-04-28T13:34:17.381Z,6.63
2023-04-28T13:36:44.098Z,5.70
2023-04-28T13:39:14.808Z,5.50
2023-04-28T13:41:41.431Z,5.40
2023-04-28T13:44:08.406Z,6.68
2023-04-28T13:46:34.834Z,6.10
2023-04-28T13:49:01.611Z,5.55
2023-04-28T13:51:28.694Z,6.50
2023-04-28T13:53:55.266Z,6.07
2023-04-28T13:56:21.870Z,6.88
2023-04-28T13:58:48.303Z,5.20
2023-04-28T14:01:14.946Z,5.80
2023-04-28T14:03:41.677Z,7.03
2023-04-28T14:06:08.582Z,8.27
2023-04-28T14:08:35.107Z,7.72
2023-04-28T14:11:01.509Z,11.18
2023-04-28T14:13:27.903Z,10.63
2023-04-28T14:15:59.083Z,9.98
2023-04-28T14:18:26.887Z,10.02
2023-04-28T14:20:54.586Z,9.32
2023-04-28T14:23:22.367Z,10.02
2023-04-28T14:25:48.789Z,8.52
2023-04-28T14:28:15.311Z,8.00
2023-04-28T14:30:41.641Z,12.32
2023-04-28T14:33:08.314Z,8.10
2023-04-28T14:35:34.826Z,7.55
2023-04-28T14:38:01.337Z,7.43
2023-04-28T14:40:27.678Z,7.07
2023-04-28T14:42:53.986Z,8.35
2023-04-28T14:45:20.450Z,6.00
2023-04-28T14:47:47.366Z,6.07
2023-04-28T14:50:14.246Z,4.63
2023-04-28T14:52:41.109Z,4.68
2023-04-28T14:55:08.049Z,5.80
2023-04-28T14:57:34.947Z,4.93
2023-04-28T15:00:02.264Z,6.28
2023-04-28T15:02:29.545Z,4.82
2023-04-28T15:04:57.183Z,4.53
2023-04-28T15:07:26.423Z,4.10
2023-04-28T15:09:52.819Z,4.90
2023-04-28T15:12:20.871Z,4.03
2023-04-28T15:14:47.681Z,5.65
2023-04-28T15:17:14.214Z,4.07
2023-04-28T15:19:40.511Z,4.18
2023-04-28T15:22:06.994Z,3.92
2023-04-28T15:24:33.480Z,3.17
2023-04-28T15:26:59.798Z,3.00
2023-04-28T15:29:26.136Z,6.50
2023-04-28T15:31:52.458Z,3.15
2023-04-28T15:34:19.021Z,3.90
2023-04-28T15:36:45.420Z,4.05
2023-04-28T15:39:11.844Z,3.30
2023-04-28T15:41:38.247Z,3.13
2023-04-28T15:44:04.957Z,2.80
2023-04-28T15:46:32.020Z,2.40
2023-04-28T15:48:58.743Z,3.67
2023-04-28T15:51:25.402Z,4.05
2023-04-28T15:53:52.104Z,4.03
2023-04-28T15:56:19.736Z,2.95
2023-04-28T15:58:47.691Z,2.60
2023-04-28T16:01:14.259Z,2.63
2023-04-28T16:03:41.036Z,3.60
2023-04-28T16:06:08.151Z,2.30
2023-04-28T16:08:35.470Z,2.08
2023-04-28T16:11:02.545Z,2.42
2023-04-28T16:13:32.643Z,1.90
2023-04-28T16:15:59.500Z,2.28
2023-04-28T16:18:25.920Z,2.15
2023-04-28T16:20:53.625Z,1.85
2023-04-28T16:23:20.683Z,2.67
2023-04-28T16:25:49.248Z,1.70
2023-04-28T16:28:15.657Z,2.17
2023-04-28T16:30:43.197Z,1.40
2023-04-28T16:33:09.682Z,1.73
2023-04-28T16:35:36.720Z,3.15
2023-04-28T16:38:03.781Z,1.33
2023-04-28T16:40:30.524Z,1.60
2023-04-28T16:42:57.354Z,1.50
2023-04-28T16:45:23.835Z,2.67
2023-04-28T16:47:50.265Z,6.60
2023-04-28T16:50:17.266Z,7.30
2023-04-28T16:52:43.645Z,4.45
2023-04-28T16:55:10.712Z,2.95
2023-04-28T16:57:37.469Z,4.82
2023-04-28T17:00:06.195Z,5.53
2023-04-28T17:02:33.269Z,7.18
2023-04-28T17:04:59.885Z,6.50
2023-04-28T17:07:26.248Z,3.92
2023-04-28T17:09:52.845Z,6.25
2023-04-28T17:12:20.877Z,5.63
2023-04-28T17:14:47.455Z,4.32
2023-04-28T17:17:13.761Z,2.30
2023-04-28T17:19:41.481Z,4.60
2023-04-28T17:22:08.204Z,2.00
2023-04-28T17:24:34.723Z,2.00
2023-04-28T17:27:01.066Z,3.65
2023-04-28T17:29:27.699Z,2.90
2023-04-28T17:31:54.381Z,2.25
2023-04-28T17:34:20.908Z,1.65
2023-04-28T17:36:47.268Z,2.45
2023-04-28T17:39:15.560Z,2.03
2023-04-28T17:41:42.903Z,2.28
2023-04-28T17:44:09.227Z,2.05
2023-04-28T17:46:35.895Z,2.30
2023-04-28T17:49:02.224Z,2.22
2023-04-28T17:51:28.708Z,2.22
2023-04-28T17:53:56.727Z,2.80
2023-04-28T17:56:23.449Z,8.35
2023-04-28T17:58:49.832Z,2.20
2023-04-28T18:01:16.927Z,3.17
2023-04-28T18:03:43.470Z,3.47
2023-04-28T18:06:10.922Z,4.38
2023-04-28T18:08:37.798Z,2.42
2023-04-28T18:11:04.646Z,3.53
2023-04-28T18:13:32.061Z,3.55
2023-04-28T18:15:58.361Z,3.90
2023-04-28T18:18:25.452Z,2.28
2023-04-28T18:20:58.029Z,4.18
2023-04-28T18:23:25.922Z,2.33
2023-04-28T18:25:52.349Z,2.70
2023-04-28T18:28:18.769Z,2.42
2023-04-28T18:30:45.057Z,6.30
2023-04-28T18:33:11.427Z,2.50
2023-04-28T18:35:38.020Z,2.63
2023-04-28T18:38:05.077Z,3.28
2023-04-28T18:40:32.901Z,3.65
2023-04-28T18:43:01.996Z,3.90
2023-04-28T18:45:30.930Z,4.43
2023-04-28T18:47:58.522Z,3.33
2023-04-28T18:50:25.382Z,3.80
2023-04-28T18:52:51.659Z,1.60
2023-04-28T18:55:18.022Z,3.55
2023-04-28T18:57:44.385Z,4.60
2023-04-28T19:00:11.580Z,3.05
2023-04-28T19:02:38.010Z,2.95
2023-04-28T19:05:05.607Z,4.25
2023-04-28T19:07:32.784Z,5.40
2023-04-28T19:09:59.596Z,2.30
2023-04-28T19:12:26.356Z,3.63
2023-04-28T19:14:52.651Z,2.88
2023-04-28T19:17:18.949Z,4.57
2023-04-28T19:19:45.480Z,5.47
2023-04-28T19:22:31.331Z,4.88
2023-04-28T19:24:58.880Z,2.97
2023-04-28T19:27:29.070Z,2.00
2023-04-28T19:29:55.358Z,1.73
2023-04-28T19:32:21.781Z,2.15
2023-04-28T19:34:48.452Z,1.85
2023-04-28T19:37:14.776Z,5.97
2023-04-28T19:39:41.085Z,2.92
2023-04-28T19:42:07.457Z,5.18
2023-04-28T19:44:33.726Z,2.20
2023-04-28T19:47:04.107Z,2.40
2023-04-28T19:49:30.966Z,1.65
2023-04-28T19:51:58.388Z,1.70
2023-04-28T19:54:24.980Z,2.25
2023-04-28T19:56:53.714Z,2.92
2023-04-28T19:59:20.226Z,3.17
2023-04-28T20:01:46.795Z,1.73
2023-04-28T20:04:13.668Z,2.70
2023-04-28T20:06:40.394Z,1.95
2023-04-28T20:09:06.951Z,2.78
2023-04-28T20:11:33.398Z,2.35
2023-04-28T20:13:59.754Z,3.65
2023-04-28T20:16:26.369Z,3.20
2023-04-28T20:18:52.816Z,3.83
2023-04-28T20:21:19.801Z,3.40
2023-04-28T20:23:46.167Z,3.75
2023-04-28T20:26:14.957Z,2.35
2023-04-28T20:28:44.154Z,2.55
2023-04-28T20:31:10.726Z,1.77
2023-04-28T20:33:37.119Z,3.25
2023-04-28T20:36:05.425Z,2.28
2023-04-28T20:38:32.200Z,2.65
2023-04-28T20:40:59.300Z,2.90
2023-04-28T20:43:29.066Z,3.80
2023-04-28T20:45:55.695Z,3.38
2023-04-28T20:48:22.078Z,2.40
2023-04-28T20:50:52.604Z,3.45
2023-04-28T20:53:18.958Z,3.05
2023-04-28T20:55:45.559Z,3.95
2023-04-28T20:58:11.874Z,3.15
2023-04-28T21:00:40.417Z,3.50
2023-04-28T21:03:07.252Z,2.85
2023-04-28T21:05:33.780Z,4.60
2023-04-28T21:08:00.136Z,4.15
2023-04-28T21:10:26.902Z,3.60
2023-04-28T21:12:53.256Z,3.38
2023-04-28T21:15:19.635Z,2.30
2023-04-28T21:17:46.114Z,2.15
2023-04-28T21:20:13.100Z,3.30
2023-04-28T21:22:39.460Z,3.63
2023-04-28T21:25:08.268Z,2.83
2023-04-28T21:27:34.569Z,3.40
2023-04-28T21:30:00.998Z,4.85
2023-04-28T21:32:27.391Z,3.85
2023-04-28T21:34:53.727Z,3.10
2023-04-28T21:37:20.163Z,3.00
2023-04-28T21:39:46.873Z,2.88
2023-04-28T21:42:13.280Z,5.75
2023-04-28T21:44:40.227Z,2.90
2023-04-28T21:47:09.141Z,3.80
2023-04-28T21:49:36.024Z,3.10
2023-04-28T21:52:02.341Z,5.22
2023-04-28T21:54:28.675Z,4.97
2023-04-28T21:56:54.982Z,4.32
2023-04-28T21:59:21.557Z,5.25
2023-04-28T22:01:48.025Z,4.00
2023-04-28T22:04:14.944Z,5.32
2023-04-28T22:06:42.021Z,4.63
2023-04-28T22:09:09.106Z,4.05
2023-04-28T22:11:35.419Z,5.30
2023-04-28T22:14:01.784Z,6.10
2023-04-28T22:16:28.238Z,6.10
2023-04-28T22:18:54.635Z,7.38
2023-04-28T22:21:21.142Z,7.22
2023-04-28T22:23:47.702Z,5.53
2023-04-28T22:26:14.876Z,5.38
2023-04-28T22:28:41.605Z,7.00
2023-04-28T22:31:08.051Z,6.57
2023-04-28T22:33:34.653Z,6.60
2023-04-28T22:36:00.989Z,6.38
2023-04-28T22:38:27.298Z,6.50
2023-04-28T22:40:53.621Z,5.32
2023-04-28T22:43:19.969Z,4.65
2023-04-28T22:45:46.325Z,6.07
2023-04-28T22:48:13.705Z,6.32
2023-04-28T22:50:40.542Z,6.10
2023-04-28T22:53:08.291Z,5.80
2023-04-28T22:55:34.820Z,7.20
2023-04-28T22:58:01.189Z,5.70
2023-04-28T23:00:27.490Z,5.53
2023-04-28T23:02:53.897Z,5.82
2023-04-28T23:05:20.374Z,5.00
2023-04-28T23:07:46.692Z,6.78
2023-04-28T23:10:14.532Z,6.63
2023-04-28T23:12:41.281Z,7.70
2023-04-28T23:15:08.002Z,8.68
2023-04-28T23:17:34.429Z,8.00
2023-04-28T23:20:00.829Z,9.93
2023-04-28T23:22:27.126Z,7.97
2023-04-28T23:24:53.388Z,11.38
2023-04-28T23:27:19.688Z,8.85
2023-04-28T23:29:45.969Z,7.63
2023-04-28T23:32:12.658Z,8.85
2023-04-28T23:34:41.559Z,6.70
2023-04-28T23:37:07.982Z,7.43
2023-04-28T23:39:34.370Z,7.15
2023-04-28T23:42:02.210Z,7.53
2023-04-28T23:44:28.568Z,5.90
2023-04-28T23:46:56.138Z,6.00
2023-04-28T23:49:23.021Z,5.60
2023-04-28T23:51:49.461Z,5.30
2023-04-28T23:54:15.802Z,5.85
2023-04-28T23:56:42.165Z,6.25
2023-04-28T23:59:08.663Z,6.00
